sensor_id;sensor_type;location;lat;lon;timestamp;P1;durP1;ratioP1;P2;durP2;ratioP2
47784;SDS011;35233;55.686;37.848;2022-09-09T00:02:23;3.88;;;2.58;;
47784;SDS011;35233;55.686;37.848;2022-09-09T00:05:09;5.38;;;3.20;;
47784;SDS011;35233;55.686;37.848;2022-09-09T00:10:26;4.85;;;3.17;;
47784;SDS011;35233;55.686;37.848;2022-09-09T00:13:15;3.78;;;2.53;;
47784;SDS011;35233;55.686;37.848;2022-09-09T00:21:14;3.67;;;2.75;;
47784;SDS011;35233;55.686;37.848;2022-09-09T00:24:04;4.38;;;2.78;;
47784;SDS011;35233;55.686;37.848;2022-09-09T00:26:56;4.60;;;2.78;;
47784;SDS011;35233;55.686;37.848;2022-09-09T00:32:20;4.07;;;2.83;;
47784;SDS011;35233;55.686;37.848;2022-09-09T00:34:55;3.90;;;2.67;;
47784;SDS011;35233;55.686;37.848;2022-09-09T00:37:25;3.60;;;2.72;;
47784;SDS011;35233;55.686;37.848;2022-09-09T00:39:51;3.80;;;2.70;;
47784;SDS011;35233;55.686;37.848;2022-09-09T00:42:31;3.78;;;2.63;;
47784;SDS011;35233;55.686;37.848;2022-09-09T00:47:49;3.67;;;2.50;;
47784;SDS011;35233;55.686;37.848;2022-09-09T00:53:24;2.97;;;2.38;;
47784;SDS011;35233;55.686;37.848;2022-09-09T00:56:14;3.35;;;2.25;;
47784;SDS011;35233;55.686;37.848;2022-09-09T01:01:45;4.00;;;2.50;;
47784;SDS011;35233;55.686;37.848;2022-09-09T01:04:13;3.47;;;2.50;;
47784;SDS011;35233;55.686;37.848;2022-09-09T01:06:46;3.60;;;2.42;;
47784;SDS011;35233;55.686;37.848;2022-09-09T01:14:45;2.70;;;2.28;;
47784;SDS011;35233;55.686;37.848;2022-09-09T01:25:13;3.33;;;2.40;;
47784;SDS011;35233;55.686;37.848;2022-09-09T01:27:43;3.22;;;2.28;;
47784;SDS011;35233;55.686;37.848;2022-09-09T01:30:12;2.67;;;2.20;;
47784;SDS011;35233;55.686;37.848;2022-09-09T01:32:47;3.05;;;2.28;;
47784;SDS011;35233;55.686;37.848;2022-09-09T01:38:11;2.92;;;2.15;;
47784;SDS011;35233;55.686;37.848;2022-09-09T01:40:37;3.42;;;2.38;;
47784;SDS011;35233;55.686;37.848;2022-09-09T01:43:03;2.83;;;2.17;;
47784;SDS011;35233;55.686;37.848;2022-09-09T01:45:29;3.47;;;2.05;;
47784;SDS011;35233;55.686;37.848;2022-09-09T01:47:56;2.83;;;2.28;;
47784;SDS011;35233;55.686;37.848;2022-09-09T01:50:22;4.13;;;2.25;;
47784;SDS011;35233;55.686;37.848;2022-09-09T01:52:50;3.63;;;2.35;;
47784;SDS011;35233;55.686;37.848;2022-09-09T01:55:28;3.00;;;2.10;;
47784;SDS011;35233;55.686;37.848;2022-09-09T01:58:01;2.47;;;2.08;;
47784;SDS011;35233;55.686;37.848;2022-09-09T02:00:43;3.67;;;2.22;;
47784;SDS011;35233;55.686;37.848;2022-09-09T02:03:27;3.22;;;2.20;;
47784;SDS011;35233;55.686;37.848;2022-09-09T02:08:48;2.85;;;2.40;;
47784;SDS011;35233;55.686;37.848;2022-09-09T02:11:18;3.30;;;2.05;;
47784;SDS011;35233;55.686;37.848;2022-09-09T02:13:47;4.20;;;2.35;;
47784;SDS011;35233;55.686;37.848;2022-09-09T02:21:33;4.07;;;2.33;;
47784;SDS011;35233;55.686;37.848;2022-09-09T02:24:02;4.30;;;2.30;;
47784;SDS011;35233;55.686;37.848;2022-09-09T02:26:33;3.25;;;2.20;;
47784;SDS011;35233;55.686;37.848;2022-09-09T02:29:01;3.17;;;2.03;;
47784;SDS011;35233;55.686;37.848;2022-09-09T02:31:31;3.05;;;2.42;;
47784;SDS011;35233;55.686;37.848;2022-09-09T02:34:00;3.80;;;2.33;;
47784;SDS011;35233;55.686;37.848;2022-09-09T02:36:29;3.85;;;2.22;;
47784;SDS011;35233;55.686;37.848;2022-09-09T02:38:59;3.45;;;2.28;;
47784;SDS011;35233;55.686;37.848;2022-09-09T02:41:32;3.75;;;2.50;;
47784;SDS011;35233;55.686;37.848;2022-09-09T02:44:00;3.22;;;2.50;;
47784;SDS011;35233;55.686;37.848;2022-09-09T02:49:06;3.53;;;2.45;;
47784;SDS011;35233;55.686;37.848;2022-09-09T02:54:25;3.97;;;2.60;;
47784;SDS011;35233;55.686;37.848;2022-09-09T02:56:56;4.13;;;2.20;;
47784;SDS011;35233;55.686;37.848;2022-09-09T02:59:29;3.03;;;2.40;;
47784;SDS011;35233;55.686;37.848;2022-09-09T03:01:55;3.60;;;2.47;;
47784;SDS011;35233;55.686;37.848;2022-09-09T03:04:21;5.00;;;2.47;;
47784;SDS011;35233;55.686;37.848;2022-09-09T03:06:46;2.92;;;2.15;;
47784;SDS011;35233;55.686;37.848;2022-09-09T03:09:12;3.33;;;2.25;;
47784;SDS011;35233;55.686;37.848;2022-09-09T03:11:38;2.97;;;2.30;;
47784;SDS011;35233;55.686;37.848;2022-09-09T03:14:03;3.22;;;2.60;;
47784;SDS011;35233;55.686;37.848;2022-09-09T03:16:29;3.22;;;2.20;;
47784;SDS011;35233;55.686;37.848;2022-09-09T03:18:55;3.70;;;2.40;;
47784;SDS011;35233;55.686;37.848;2022-09-09T03:21:21;3.10;;;2.38;;
47784;SDS011;35233;55.686;37.848;2022-09-09T03:23:46;2.88;;;2.50;;
47784;SDS011;35233;55.686;37.848;2022-09-09T03:26:12;2.70;;;2.20;;
47784;SDS011;35233;55.686;37.848;2022-09-09T03:28:39;2.97;;;2.20;;
47784;SDS011;35233;55.686;37.848;2022-09-09T03:31:05;3.78;;;2.65;;
47784;SDS011;35233;55.686;37.848;2022-09-09T03:33:31;3.15;;;2.42;;
47784;SDS011;35233;55.686;37.848;2022-09-09T03:35:56;2.83;;;2.17;;
47784;SDS011;35233;55.686;37.848;2022-09-09T03:38:23;2.97;;;2.40;;
47784;SDS011;35233;55.686;37.848;2022-09-09T03:40:50;4.03;;;2.60;;
47784;SDS011;35233;55.686;37.848;2022-09-09T03:43:27;3.22;;;2.20;;
47784;SDS011;35233;55.686;37.848;2022-09-09T03:45:53;3.50;;;2.38;;
47784;SDS011;35233;55.686;37.848;2022-09-09T03:48:22;3.65;;;2.30;;
47784;SDS011;35233;55.686;37.848;2022-09-09T03:50:49;3.10;;;2.10;;
47784;SDS011;35233;55.686;37.848;2022-09-09T03:53:16;2.83;;;2.03;;
47784;SDS011;35233;55.686;37.848;2022-09-09T03:55:45;3.35;;;2.10;;
47784;SDS011;35233;55.686;37.848;2022-09-09T03:58:12;2.90;;;2.35;;
47784;SDS011;35233;55.686;37.848;2022-09-09T04:00:38;3.25;;;2.30;;
47784;SDS011;35233;55.686;37.848;2022-09-09T04:03:08;3.97;;;2.67;;
47784;SDS011;35233;55.686;37.848;2022-09-09T04:05:37;3.65;;;2.47;;
47784;SDS011;35233;55.686;37.848;2022-09-09T04:08:06;3.40;;;2.28;;
47784;SDS011;35233;55.686;37.848;2022-09-09T04:10:32;2.92;;;2.08;;
47784;SDS011;35233;55.686;37.848;2022-09-09T04:12:58;3.55;;;2.20;;
47784;SDS011;35233;55.686;37.848;2022-09-09T04:15:24;3.28;;;2.45;;
47784;SDS011;35233;55.686;37.848;2022-09-09T04:17:50;3.53;;;2.40;;
47784;SDS011;35233;55.686;37.848;2022-09-09T04:20:16;2.78;;;2.25;;
47784;SDS011;35233;55.686;37.848;2022-09-09T04:22:41;3.15;;;2.47;;
47784;SDS011;35233;55.686;37.848;2022-09-09T04:25:07;3.65;;;2.60;;
47784;SDS011;35233;55.686;37.848;2022-09-09T04:27:33;3.25;;;2.33;;
47784;SDS011;35233;55.686;37.848;2022-09-09T04:29:58;2.78;;;2.30;;
47784;SDS011;35233;55.686;37.848;2022-09-09T04:32:24;2.58;;;2.08;;
47784;SDS011;35233;55.686;37.848;2022-09-09T04:34:52;3.30;;;2.30;;
47784;SDS011;35233;55.686;37.848;2022-09-09T04:37:17;2.22;;;2.03;;
47784;SDS011;35233;55.686;37.848;2022-09-09T04:39:43;4.00;;;2.90;;
47784;SDS011;35233;55.686;37.848;2022-09-09T04:42:08;3.97;;;2.40;;
47784;SDS011;35233;55.686;37.848;2022-09-09T04:44:34;4.25;;;2.78;;
47784;SDS011;35233;55.686;37.848;2022-09-09T04:47:02;4.88;;;3.20;;
47784;SDS011;35233;55.686;37.848;2022-09-09T04:49:28;5.05;;;3.30;;
47784;SDS011;35233;55.686;37.848;2022-09-09T04:51:56;5.28;;;3.67;;
47784;SDS011;35233;55.686;37.848;2022-09-09T04:54:22;6.97;;;4.18;;
47784;SDS011;35233;55.686;37.848;2022-09-09T04:56:47;6.57;;;4.55;;
47784;SDS011;35233;55.686;37.848;2022-09-09T04:59:15;7.15;;;4.15;;
47784;SDS011;35233;55.686;37.848;2022-09-09T05:01:41;6.70;;;4.78;;
47784;SDS011;35233;55.686;37.848;2022-09-09T05:04:07;8.02;;;5.18;;
47784;SDS011;35233;55.686;37.848;2022-09-09T05:06:33;9.38;;;5.43;;
47784;SDS011;35233;55.686;37.848;2022-09-09T05:08:59;8.57;;;5.70;;
47784;SDS011;35233;55.686;37.848;2022-09-09T05:11:26;7.93;;;5.40;;
47784;SDS011;35233;55.686;37.848;2022-09-09T05:13:52;9.60;;;6.40;;
47784;SDS011;35233;55.686;37.848;2022-09-09T05:16:19;9.18;;;6.30;;
47784;SDS011;35233;55.686;37.848;2022-09-09T05:18:46;9.82;;;6.68;;
47784;SDS011;35233;55.686;37.848;2022-09-09T05:21:12;12.52;;;7.07;;
47784;SDS011;35233;55.686;37.848;2022-09-09T05:23:39;12.20;;;7.55;;
47784;SDS011;35233;55.686;37.848;2022-09-09T05:26:06;12.60;;;7.82;;
47784;SDS011;35233;55.686;37.848;2022-09-09T05:28:34;12.35;;;8.48;;
47784;SDS011;35233;55.686;37.848;2022-09-09T05:31:01;12.85;;;7.95;;
47784;SDS011;35233;55.686;37.848;2022-09-09T05:33:29;12.85;;;9.05;;
47784;SDS011;35233;55.686;37.848;2022-09-09T05:35:57;11.88;;;8.40;;
47784;SDS011;35233;55.686;37.848;2022-09-09T05:38:23;12.32;;;8.43;;
47784;SDS011;35233;55.686;37.848;2022-09-09T05:40:51;11.68;;;8.13;;
47784;SDS011;35233;55.686;37.848;2022-09-09T05:43:20;12.50;;;9.10;;
47784;SDS011;35233;55.686;37.848;2022-09-09T05:45:46;15.75;;;9.90;;
47784;SDS011;35233;55.686;37.848;2022-09-09T05:48:13;14.35;;;9.23;;
47784;SDS011;35233;55.686;37.848;2022-09-09T05:50:40;13.98;;;9.52;;
47784;SDS011;35233;55.686;37.848;2022-09-09T05:53:06;15.13;;;9.82;;
47784;SDS011;35233;55.686;37.848;2022-09-09T05:55:31;14.57;;;9.23;;
47784;SDS011;35233;55.686;37.848;2022-09-09T05:57:57;14.95;;;9.77;;
47784;SDS011;35233;55.686;37.848;2022-09-09T06:00:22;14.95;;;9.32;;
47784;SDS011;35233;55.686;37.848;2022-09-09T06:02:51;14.88;;;10.05;;
47784;SDS011;35233;55.686;37.848;2022-09-09T06:05:18;14.65;;;10.15;;
47784;SDS011;35233;55.686;37.848;2022-09-09T06:07:43;14.02;;;9.45;;
47784;SDS011;35233;55.686;37.848;2022-09-09T06:10:10;14.52;;;9.52;;
47784;SDS011;35233;55.686;37.848;2022-09-09T06:12:38;16.08;;;10.02;;
47784;SDS011;35233;55.686;37.848;2022-09-09T06:15:04;15.52;;;9.48;;
47784;SDS011;35233;55.686;37.848;2022-09-09T06:17:30;16.45;;;10.63;;
47784;SDS011;35233;55.686;37.848;2022-09-09T06:19:56;13.20;;;9.68;;
47784;SDS011;35233;55.686;37.848;2022-09-09T06:22:22;13.88;;;9.98;;
47784;SDS011;35233;55.686;37.848;2022-09-09T06:24:47;14.82;;;10.30;;
47784;SDS011;35233;55.686;37.848;2022-09-09T06:27:13;15.82;;;10.35;;
47784;SDS011;35233;55.686;37.848;2022-09-09T06:29:38;15.18;;;11.30;;
47784;SDS011;35233;55.686;37.848;2022-09-09T06:32:04;14.02;;;10.57;;
47784;SDS011;35233;55.686;37.848;2022-09-09T06:34:29;16.40;;;10.55;;
47784;SDS011;35233;55.686;37.848;2022-09-09T06:36:55;13.73;;;10.45;;
47784;SDS011;35233;55.686;37.848;2022-09-09T06:39:22;16.13;;;10.98;;
47784;SDS011;35233;55.686;37.848;2022-09-09T06:41:48;15.60;;;10.65;;
47784;SDS011;35233;55.686;37.848;2022-09-09T06:44:14;16.83;;;10.95;;
47784;SDS011;35233;55.686;37.848;2022-09-09T06:46:43;16.10;;;10.80;;
47784;SDS011;35233;55.686;37.848;2022-09-09T06:49:09;13.98;;;10.60;;
47784;SDS011;35233;55.686;37.848;2022-09-09T06:51:35;14.40;;;10.27;;
47784;SDS011;35233;55.686;37.848;2022-09-09T06:54:07;14.00;;;10.20;;
47784;SDS011;35233;55.686;37.848;2022-09-09T06:56:34;13.75;;;10.73;;
47784;SDS011;35233;55.686;37.848;2022-09-09T06:59:02;14.68;;;10.77;;
47784;SDS011;35233;55.686;37.848;2022-09-09T07:01:33;15.27;;;10.55;;
47784;SDS011;35233;55.686;37.848;2022-09-09T07:04:01;13.90;;;10.43;;
47784;SDS011;35233;55.686;37.848;2022-09-09T07:06:29;16.05;;;10.55;;
47784;SDS011;35233;55.686;37.848;2022-09-09T07:08:57;14.57;;;11.55;;
47784;SDS011;35233;55.686;37.848;2022-09-09T07:11:29;16.20;;;11.57;;
47784;SDS011;35233;55.686;37.848;2022-09-09T07:14:02;15.32;;;11.05;;
47784;SDS011;35233;55.686;37.848;2022-09-09T07:16:27;15.40;;;11.52;;
47784;SDS011;35233;55.686;37.848;2022-09-09T07:18:55;16.88;;;12.18;;
47784;SDS011;35233;55.686;37.848;2022-09-09T07:21:26;17.38;;;13.30;;
47784;SDS011;35233;55.686;37.848;2022-09-09T07:23:52;16.77;;;12.77;;
47784;SDS011;35233;55.686;37.848;2022-09-09T07:26:19;19.48;;;13.57;;
47784;SDS011;35233;55.686;37.848;2022-09-09T07:28:47;18.67;;;13.43;;
47784;SDS011;35233;55.686;37.848;2022-09-09T07:31:14;15.68;;;12.10;;
47784;SDS011;35233;55.686;37.848;2022-09-09T07:33:43;15.60;;;12.55;;
47784;SDS011;35233;55.686;37.848;2022-09-09T07:36:11;16.65;;;12.93;;
47784;SDS011;35233;55.686;37.848;2022-09-09T07:38:40;17.65;;;12.05;;
47784;SDS011;35233;55.686;37.848;2022-09-09T07:41:09;19.33;;;12.02;;
47784;SDS011;35233;55.686;37.848;2022-09-09T07:43:39;15.90;;;11.80;;
47784;SDS011;35233;55.686;37.848;2022-09-09T07:46:06;15.35;;;11.55;;
47784;SDS011;35233;55.686;37.848;2022-09-09T07:48:33;14.50;;;10.70;;
47784;SDS011;35233;55.686;37.848;2022-09-09T07:51:03;14.57;;;11.27;;
47784;SDS011;35233;55.686;37.848;2022-09-09T07:53:34;15.00;;;10.70;;
47784;SDS011;35233;55.686;37.848;2022-09-09T07:56:09;14.45;;;10.93;;
47784;SDS011;35233;55.686;37.848;2022-09-09T07:58:37;14.82;;;10.85;;
47784;SDS011;35233;55.686;37.848;2022-09-09T08:01:08;12.80;;;10.10;;
47784;SDS011;35233;55.686;37.848;2022-09-09T08:03:35;13.73;;;10.13;;
47784;SDS011;35233;55.686;37.848;2022-09-09T08:06:05;12.73;;;9.63;;
47784;SDS011;35233;55.686;37.848;2022-09-09T08:08:33;11.57;;;9.43;;
47784;SDS011;35233;55.686;37.848;2022-09-09T08:11:13;11.52;;;9.25;;
47784;SDS011;35233;55.686;37.848;2022-09-09T08:13:41;11.30;;;8.18;;
47784;SDS011;35233;55.686;37.848;2022-09-09T08:16:09;11.35;;;8.68;;
47784;SDS011;35233;55.686;37.848;2022-09-09T08:18:37;11.27;;;8.57;;
47784;SDS011;35233;55.686;37.848;2022-09-09T08:21:05;12.20;;;9.07;;
47784;SDS011;35233;55.686;37.848;2022-09-09T08:23:37;11.90;;;9.15;;
47784;SDS011;35233;55.686;37.848;2022-09-09T08:26:16;12.27;;;8.50;;
47784;SDS011;35233;55.686;37.848;2022-09-09T08:28:47;11.35;;;8.45;;
47784;SDS011;35233;55.686;37.848;2022-09-09T08:31:17;11.20;;;8.90;;
47784;SDS011;35233;55.686;37.848;2022-09-09T08:33:46;12.35;;;8.93;;
47784;SDS011;35233;55.686;37.848;2022-09-09T08:36:12;10.45;;;8.02;;
47784;SDS011;35233;55.686;37.848;2022-09-09T08:38:40;13.15;;;9.02;;
47784;SDS011;35233;55.686;37.848;2022-09-09T08:43:50;12.40;;;9.13;;
47784;SDS011;35233;55.686;37.848;2022-09-09T08:49:05;11.43;;;8.70;;
47784;SDS011;35233;55.686;37.848;2022-09-09T08:51:56;11.57;;;9.15;;
47784;SDS011;35233;55.686;37.848;2022-09-09T08:54:23;13.25;;;9.50;;
47784;SDS011;35233;55.686;37.848;2022-09-09T08:56:51;11.23;;;8.75;;
47784;SDS011;35233;55.686;37.848;2022-09-09T08:59:17;12.38;;;9.32;;
47784;SDS011;35233;55.686;37.848;2022-09-09T09:12:25;13.75;;;10.45;;
47784;SDS011;35233;55.686;37.848;2022-09-09T09:14:55;14.60;;;10.77;;
47784;SDS011;35233;55.686;37.848;2022-09-09T09:17:28;14.05;;;10.57;;
47784;SDS011;35233;55.686;37.848;2022-09-09T09:19:58;12.25;;;9.85;;
47784;SDS011;35233;55.686;37.848;2022-09-09T09:22:43;14.05;;;10.35;;
47784;SDS011;35233;55.686;37.848;2022-09-09T09:25:15;15.60;;;10.95;;
47784;SDS011;35233;55.686;37.848;2022-09-09T09:28:27;15.95;;;11.90;;
47784;SDS011;35233;55.686;37.848;2022-09-09T09:30:38;15.10;;;11.38;;
47784;SDS011;35233;55.686;37.848;2022-09-09T09:33:14;14.80;;;11.05;;
47784;SDS011;35233;55.686;37.848;2022-09-09T09:35:45;13.80;;;11.10;;
47784;SDS011;35233;55.686;37.848;2022-09-09T09:38:22;13.43;;;10.63;;
47784;SDS011;35233;55.686;37.848;2022-09-09T09:40:52;16.25;;;11.50;;
47784;SDS011;35233;55.686;37.848;2022-09-09T09:43:52;13.25;;;10.57;;
47784;SDS011;35233;55.686;37.848;2022-09-09T09:46:19;17.23;;;10.82;;
47784;SDS011;35233;55.686;37.848;2022-09-09T09:48:57;14.27;;;10.73;;
47784;SDS011;35233;55.686;37.848;2022-09-09T09:51:25;15.68;;;11.50;;
47784;SDS011;35233;55.686;37.848;2022-09-09T09:53:53;14.50;;;11.40;;
47784;SDS011;35233;55.686;37.848;2022-09-09T09:56:25;13.88;;;10.93;;
47784;SDS011;35233;55.686;37.848;2022-09-09T09:58:57;15.23;;;11.05;;
47784;SDS011;35233;55.686;37.848;2022-09-09T10:03:58;13.95;;;11.15;;
47784;SDS011;35233;55.686;37.848;2022-09-09T10:06:32;15.40;;;11.73;;
47784;SDS011;35233;55.686;37.848;2022-09-09T10:09:01;15.40;;;11.18;;
47784;SDS011;35233;55.686;37.848;2022-09-09T10:14:25;15.70;;;11.85;;
47784;SDS011;35233;55.686;37.848;2022-09-09T10:19:38;16.90;;;12.40;;
47784;SDS011;35233;55.686;37.848;2022-09-09T10:27:42;16.20;;;12.65;;
47784;SDS011;35233;55.686;37.848;2022-09-09T10:30:16;18.38;;;13.50;;
47784;SDS011;35233;55.686;37.848;2022-09-09T10:32:53;16.10;;;12.38;;
47784;SDS011;35233;55.686;37.848;2022-09-09T10:41:15;16.98;;;13.00;;
47784;SDS011;35233;55.686;37.848;2022-09-09T10:43:55;15.50;;;12.13;;
47784;SDS011;35233;55.686;37.848;2022-09-09T10:47:15;16.17;;;12.27;;
47784;SDS011;35233;55.686;37.848;2022-09-09T10:52:59;17.88;;;13.40;;
47784;SDS011;35233;55.686;37.848;2022-09-09T10:55:39;17.45;;;13.50;;
47784;SDS011;35233;55.686;37.848;2022-09-09T10:58:10;15.68;;;12.05;;
47784;SDS011;35233;55.686;37.848;2022-09-09T11:00:42;15.45;;;12.50;;
47784;SDS011;35233;55.686;37.848;2022-09-09T11:03:21;15.93;;;12.98;;
47784;SDS011;35233;55.686;37.848;2022-09-09T11:05:51;17.00;;;13.18;;
47784;SDS011;35233;55.686;37.848;2022-09-09T11:08:25;15.05;;;12.57;;
47784;SDS011;35233;55.686;37.848;2022-09-09T11:19:33;17.25;;;13.55;;
47784;SDS011;35233;55.686;37.848;2022-09-09T11:22:08;16.15;;;12.85;;
47784;SDS011;35233;55.686;37.848;2022-09-09T11:27:37;14.85;;;12.07;;
47784;SDS011;35233;55.686;37.848;2022-09-09T11:30:24;16.10;;;12.43;;
47784;SDS011;35233;55.686;37.848;2022-09-09T11:38:51;16.58;;;13.05;;
47784;SDS011;35233;55.686;37.848;2022-09-09T11:41:18;17.10;;;12.85;;
47784;SDS011;35233;55.686;37.848;2022-09-09T11:43:46;16.77;;;13.77;;
47784;SDS011;35233;55.686;37.848;2022-09-09T11:46:19;17.63;;;13.93;;
47784;SDS011;35233;55.686;37.848;2022-09-09T11:49:00;18.25;;;13.43;;
47784;SDS011;35233;55.686;37.848;2022-09-09T11:51:28;15.93;;;12.45;;
47784;SDS011;35233;55.686;37.848;2022-09-09T11:53:56;16.25;;;13.10;;
47784;SDS011;35233;55.686;37.848;2022-09-09T11:56:33;15.18;;;12.68;;
47784;SDS011;35233;55.686;37.848;2022-09-09T12:01:59;15.30;;;12.40;;
47784;SDS011;35233;55.686;37.848;2022-09-09T12:04:28;14.35;;;11.60;;
47784;SDS011;35233;55.686;37.848;2022-09-09T12:17:17;12.63;;;10.55;;
47784;SDS011;35233;55.686;37.848;2022-09-09T12:20:06;15.10;;;11.73;;
47784;SDS011;35233;55.686;37.848;2022-09-09T12:23:19;14.57;;;11.95;;
47784;SDS011;35233;55.686;37.848;2022-09-09T12:28:22;13.18;;;10.73;;
47784;SDS011;35233;55.686;37.848;2022-09-09T12:33:42;12.63;;;10.10;;
47784;SDS011;35233;55.686;37.848;2022-09-09T12:36:19;13.43;;;10.00;;
47784;SDS011;35233;55.686;37.848;2022-09-09T12:38:58;12.77;;;9.63;;
47784;SDS011;35233;55.686;37.848;2022-09-09T12:41:35;11.50;;;9.20;;
47784;SDS011;35233;55.686;37.848;2022-09-09T12:44:05;11.38;;;8.85;;
47784;SDS011;35233;55.686;37.848;2022-09-09T12:46:34;12.32;;;9.52;;
47784;SDS011;35233;55.686;37.848;2022-09-09T12:49:05;12.48;;;9.70;;
47784;SDS011;35233;55.686;37.848;2022-09-09T12:51:48;11.93;;;9.20;;
47784;SDS011;35233;55.686;37.848;2022-09-09T12:54:14;11.82;;;9.02;;
47784;SDS011;35233;55.686;37.848;2022-09-09T12:56:44;12.80;;;9.30;;
47784;SDS011;35233;55.686;37.848;2022-09-09T12:59:21;10.10;;;8.40;;
47784;SDS011;35233;55.686;37.848;2022-09-09T13:01:55;11.55;;;8.10;;
47784;SDS011;35233;55.686;37.848;2022-09-09T13:04:21;10.93;;;8.23;;
47784;SDS011;35233;55.686;37.848;2022-09-09T13:06:47;11.32;;;7.85;;
47784;SDS011;35233;55.686;37.848;2022-09-09T13:09:14;10.00;;;7.82;;
47784;SDS011;35233;55.686;37.848;2022-09-09T13:11:43;12.27;;;8.25;;
47784;SDS011;35233;55.686;37.848;2022-09-09T13:14:17;9.00;;;7.47;;
47784;SDS011;35233;55.686;37.848;2022-09-09T13:16:58;10.07;;;8.00;;
47784;SDS011;35233;55.686;37.848;2022-09-09T13:19:25;9.73;;;7.95;;
47784;SDS011;35233;55.686;37.848;2022-09-09T13:21:54;9.38;;;7.28;;
47784;SDS011;35233;55.686;37.848;2022-09-09T13:24:41;9.52;;;7.72;;
47784;SDS011;35233;55.686;37.848;2022-09-09T13:30:23;10.13;;;7.55;;
47784;SDS011;35233;55.686;37.848;2022-09-09T13:33:03;9.75;;;7.70;;
47784;SDS011;35233;55.686;37.848;2022-09-09T13:35:29;9.60;;;7.22;;
47784;SDS011;35233;55.686;37.848;2022-09-09T13:37:55;10.77;;;7.57;;
47784;SDS011;35233;55.686;37.848;2022-09-09T13:40:21;9.18;;;7.40;;
47784;SDS011;35233;55.686;37.848;2022-09-09T13:42:52;9.45;;;7.43;;
47784;SDS011;35233;55.686;37.848;2022-09-09T13:45:21;9.80;;;7.93;;
47784;SDS011;35233;55.686;37.848;2022-09-09T13:47:51;10.63;;;7.35;;
47784;SDS011;35233;55.686;37.848;2022-09-09T13:52:52;10.70;;;8.30;;
47784;SDS011;35233;55.686;37.848;2022-09-09T13:55:23;9.02;;;7.18;;
47784;SDS011;35233;55.686;37.848;2022-09-09T13:57:55;9.32;;;7.65;;
47784;SDS011;35233;55.686;37.848;2022-09-09T14:00:32;9.18;;;7.28;;
47784;SDS011;35233;55.686;37.848;2022-09-09T14:02:58;9.80;;;7.25;;
47784;SDS011;35233;55.686;37.848;2022-09-09T14:05:27;9.23;;;6.57;;
47784;SDS011;35233;55.686;37.848;2022-09-09T14:07:55;9.02;;;6.75;;
47784;SDS011;35233;55.686;37.848;2022-09-09T14:10:22;8.27;;;6.15;;
47784;SDS011;35233;55.686;37.848;2022-09-09T14:12:48;7.53;;;6.00;;
47784;SDS011;35233;55.686;37.848;2022-09-09T14:15:13;10.18;;;6.50;;
47784;SDS011;35233;55.686;37.848;2022-09-09T14:17:39;8.05;;;6.22;;
47784;SDS011;35233;55.686;37.848;2022-09-09T14:20:05;7.97;;;5.68;;
47784;SDS011;35233;55.686;37.848;2022-09-09T14:22:33;7.38;;;5.20;;
47784;SDS011;35233;55.686;37.848;2022-09-09T14:24:58;6.53;;;5.05;;
47784;SDS011;35233;55.686;37.848;2022-09-09T14:27:24;6.10;;;4.80;;
47784;SDS011;35233;55.686;37.848;2022-09-09T14:29:51;6.90;;;5.03;;
47784;SDS011;35233;55.686;37.848;2022-09-09T14:32:17;6.20;;;5.03;;
47784;SDS011;35233;55.686;37.848;2022-09-09T14:34:42;6.45;;;4.55;;
47784;SDS011;35233;55.686;37.848;2022-09-09T14:37:08;7.15;;;4.50;;
47784;SDS011;35233;55.686;37.848;2022-09-09T14:39:33;5.57;;;4.38;;
47784;SDS011;35233;55.686;37.848;2022-09-09T14:41:59;6.22;;;4.50;;
47784;SDS011;35233;55.686;37.848;2022-09-09T14:44:24;5.53;;;4.15;;
47784;SDS011;35233;55.686;37.848;2022-09-09T14:46:50;5.68;;;4.03;;
47784;SDS011;35233;55.686;37.848;2022-09-09T14:49:15;5.63;;;4.20;;
47784;SDS011;35233;55.686;37.848;2022-09-09T14:51:41;4.80;;;3.47;;
47784;SDS011;35233;55.686;37.848;2022-09-09T14:54:06;4.80;;;3.55;;
47784;SDS011;35233;55.686;37.848;2022-09-09T14:56:32;6.03;;;3.30;;
47784;SDS011;35233;55.686;37.848;2022-09-09T14:59:01;4.63;;;3.40;;
47784;SDS011;35233;55.686;37.848;2022-09-09T15:01:28;4.47;;;3.13;;
47784;SDS011;35233;55.686;37.848;2022-09-09T15:03:55;4.90;;;3.40;;
47784;SDS011;35233;55.686;37.848;2022-09-09T15:06:26;4.85;;;3.13;;
47784;SDS011;35233;55.686;37.848;2022-09-09T15:08:54;6.05;;;3.72;;
47784;SDS011;35233;55.686;37.848;2022-09-09T15:11:22;5.00;;;3.38;;
47784;SDS011;35233;55.686;37.848;2022-09-09T15:13:51;4.22;;;2.70;;
47784;SDS011;35233;55.686;37.848;2022-09-09T15:16:18;3.60;;;2.72;;
47784;SDS011;35233;55.686;37.848;2022-09-09T15:18:45;4.80;;;3.13;;
47784;SDS011;35233;55.686;37.848;2022-09-09T15:21:12;4.10;;;2.90;;
47784;SDS011;35233;55.686;37.848;2022-09-09T15:23:40;3.72;;;2.92;;
47784;SDS011;35233;55.686;37.848;2022-09-09T15:26:06;5.28;;;3.70;;
47784;SDS011;35233;55.686;37.848;2022-09-09T15:28:33;4.13;;;2.92;;
47784;SDS011;35233;55.686;37.848;2022-09-09T15:31:13;5.13;;;3.38;;
47784;SDS011;35233;55.686;37.848;2022-09-09T15:33:40;5.32;;;3.55;;
47784;SDS011;35233;55.686;37.848;2022-09-09T15:36:19;5.85;;;3.80;;
47784;SDS011;35233;55.686;37.848;2022-09-09T15:38:47;6.15;;;3.80;;
47784;SDS011;35233;55.686;37.848;2022-09-09T15:41:13;5.65;;;4.20;;
47784;SDS011;35233;55.686;37.848;2022-09-09T15:43:42;7.90;;;4.22;;
47784;SDS011;35233;55.686;37.848;2022-09-09T15:46:31;6.03;;;4.40;;
47784;SDS011;35233;55.686;37.848;2022-09-09T15:48:58;6.65;;;4.80;;
47784;SDS011;35233;55.686;37.848;2022-09-09T15:51:28;7.20;;;4.90;;
47784;SDS011;35233;55.686;37.848;2022-09-09T15:53:57;6.97;;;5.05;;
47784;SDS011;35233;55.686;37.848;2022-09-09T15:56:24;6.93;;;4.38;;
47784;SDS011;35233;55.686;37.848;2022-09-09T15:58:50;6.90;;;4.90;;
47784;SDS011;35233;55.686;37.848;2022-09-09T16:01:17;6.10;;;4.55;;
47784;SDS011;35233;55.686;37.848;2022-09-09T16:03:44;6.43;;;4.70;;
47784;SDS011;35233;55.686;37.848;2022-09-09T16:06:11;6.97;;;4.95;;
47784;SDS011;35233;55.686;37.848;2022-09-09T16:08:40;6.97;;;4.80;;
47784;SDS011;35233;55.686;37.848;2022-09-09T16:11:14;7.10;;;4.88;;
47784;SDS011;35233;55.686;37.848;2022-09-09T16:13:42;6.93;;;5.10;;
47784;SDS011;35233;55.686;37.848;2022-09-09T16:16:09;7.05;;;4.70;;
47784;SDS011;35233;55.686;37.848;2022-09-09T16:18:38;8.25;;;5.20;;
47784;SDS011;35233;55.686;37.848;2022-09-09T16:21:05;7.13;;;5.05;;
47784;SDS011;35233;55.686;37.848;2022-09-09T16:23:33;7.03;;;5.18;;
47784;SDS011;35233;55.686;37.848;2022-09-09T16:25:59;7.70;;;5.35;;
47784;SDS011;35233;55.686;37.848;2022-09-09T16:28:25;7.43;;;5.57;;
47784;SDS011;35233;55.686;37.848;2022-09-09T16:30:51;7.78;;;5.75;;
47784;SDS011;35233;55.686;37.848;2022-09-09T16:33:16;8.55;;;6.43;;
47784;SDS011;35233;55.686;37.848;2022-09-09T16:35:42;8.82;;;6.75;;
47784;SDS011;35233;55.686;37.848;2022-09-09T16:38:08;9.23;;;7.07;;
47784;SDS011;35233;55.686;37.848;2022-09-09T16:40:34;9.18;;;7.20;;
47784;SDS011;35233;55.686;37.848;2022-09-09T16:43:01;8.85;;;6.97;;
47784;SDS011;35233;55.686;37.848;2022-09-09T16:45:27;9.23;;;7.00;;
47784;SDS011;35233;55.686;37.848;2022-09-09T16:47:53;9.93;;;7.45;;
47784;SDS011;35233;55.686;37.848;2022-09-09T16:50:18;10.63;;;7.57;;